sensor_id;sensor_type;location;lat;lon;timestamp;temperature;humidity
20446;DHT22;10382;49.140;9.234;2023-05-18T00:01:58;9.40;99.90
20446;DHT22;10382;49.140;9.234;2023-05-18T00:04:25;9.40;99.90
20446;DHT22;10382;49.140;9.234;2023-05-18T00:06:54;9.50;99.90
20446;DHT22;10382;49.140;9.234;2023-05-18T00:09:23;9.60;99.90
20446;DHT22;10382;49.140;9.234;2023-05-18T00:11:50;9.50;99.90
20446;DHT22;10382;49.140;9.234;2023-05-18T00:14:18;9.60;99.90
20446;DHT22;10382;49.140;9.234;2023-05-18T00:16:45;9.70;99.90
20446;DHT22;10382;49.140;9.234;2023-05-18T00:19:12;9.80;99.90
20446;DHT22;10382;49.140;9.234;2023-05-18T00:21:40;9.80;99.90
20446;DHT22;10382;49.140;9.234;2023-05-18T00:24:08;9.80;99.90
20446;DHT22;10382;49.140;9.234;2023-05-18T00:26:36;9.80;99.90
20446;DHT22;10382;49.140;9.234;2023-05-18T00:29:03;9.80;99.90
20446;DHT22;10382;49.140;9.234;2023-05-18T00:31:30;9.70;99.90
20446;DHT22;10382;49.140;9.234;2023-05-18T00:34:01;9.60;99.90
20446;DHT22;10382;49.140;9.234;2023-05-18T00:36:28;9.60;99.90
20446;DHT22;10382;49.140;9.234;2023-05-18T00:38:56;9.60;99.90
20446;DHT22;10382;49.140;9.234;2023-05-18T00:41:26;9.50;99.90
20446;DHT22;10382;49.140;9.234;2023-05-18T00:43:53;9.50;99.90
20446;DHT22;10382;49.140;9.234;2023-05-18T00:46:20;9.50;99.90
20446;DHT22;10382;49.140;9.234;2023-05-18T00:48:48;9.50;99.90
20446;DHT22;10382;49.140;9.234;2023-05-18T00:51:15;9.40;99.90
20446;DHT22;10382;49.140;9.234;2023-05-18T00:53:42;9.50;99.90
20446;DHT22;10382;49.140;9.234;2023-05-18T00:56:10;9.50;99.90
20446;DHT22;10382;49.140;9.234;2023-05-18T00:58:39;9.40;99.90
20446;DHT22;10382;49.140;9.234;2023-05-18T01:01:06;9.40;99.90
20446;DHT22;10382;49.140;9.234;2023-05-18T01:03:34;9.40;99.90
20446;DHT22;10382;49.140;9.234;2023-05-18T01:06:02;9.30;99.90
20446;DHT22;10382;49.140;9.234;2023-05-18T01:08:30;9.30;99.90
20446;DHT22;10382;49.140;9.234;2023-05-18T01:11:04;9.20;99.90
20446;DHT22;10382;49.140;9.234;2023-05-18T01:13:39;9.20;99.90
20446;DHT22;10382;49.140;9.234;2023-05-18T01:16:09;9.30;99.90
20446;DHT22;10382;49.140;9.234;2023-05-18T01:18:43;9.30;99.90
20446;DHT22;10382;49.140;9.234;2023-05-18T01:21:17;9.40;99.90
20446;DHT22;10382;49.140;9.234;2023-05-18T01:23:55;9.40;99.90
20446;DHT22;10382;49.140;9.234;2023-05-18T01:26:27;9.50;99.90
20446;DHT22;10382;49.140;9.234;2023-05-18T01:28:58;9.40;99.90
20446;DHT22;10382;49.140;9.234;2023-05-18T01:31:25;9.30;99.90
20446;DHT22;10382;49.140;9.234;2023-05-18T01:33:52;9.30;99.90
20446;DHT22;10382;49.140;9.234;2023-05-18T01:36:19;9.30;99.90
20446;DHT22;10382;49.140;9.234;2023-05-18T01:38:46;9.30;99.90
20446;DHT22;10382;49.140;9.234;2023-05-18T01:41:17;9.30;99.90
20446;DHT22;10382;49.140;9.234;2023-05-18T01:43:51;9.30;99.90
20446;DHT22;10382;49.140;9.234;2023-05-18T01:46:42;9.40;99.90
20446;DHT22;10382;49.140;9.234;2023-05-18T01:49:16;9.40;99.90
20446;DHT22;10382;49.140;9.234;2023-05-18T01:51:46;9.40;99.90
20446;DHT22;10382;49.140;9.234;2023-05-18T01:54:16;9.40;99.90
20446;DHT22;10382;49.140;9.234;2023-05-18T01:56:44;9.40;99.90
20446;DHT22;10382;49.140;9.234;2023-05-18T01:59:14;9.30;99.90
20446;DHT22;10382;49.140;9.234;2023-05-18T02:01:42;9.40;99.90
20446;DHT22;10382;49.140;9.234;2023-05-18T02:04:10;9.40;99.90
20446;DHT22;10382;49.140;9.234;2023-05-18T02:06:37;9.40;99.90
20446;DHT22;10382;49.140;9.234;2023-05-18T02:09:04;9.50;99.90
20446;DHT22;10382;49.140;9.234;2023-05-18T02:11:31;9.60;99.90
20446;DHT22;10382;49.140;9.234;2023-05-18T02:13:58;9.70;99.90
20446;DHT22;10382;49.140;9.234;2023-05-18T02:16:26;9.70;99.90
20446;DHT22;10382;49.140;9.234;2023-05-18T02:18:53;9.90;99.90
20446;DHT22;10382;49.140;9.234;2023-05-18T02:21:20;9.80;99.90
20446;DHT22;10382;49.140;9.234;2023-05-18T02:23:47;9.90;99.90
20446;DHT22;10382;49.140;9.234;2023-05-18T02:26:14;9.80;99.90
20446;DHT22;10382;49.140;9.234;2023-05-18T02:28:41;9.90;99.90
20446;DHT22;10382;49.140;9.234;2023-05-18T02:31:10;9.90;99.90
20446;DHT22;10382;49.140;9.234;2023-05-18T02:33:39;10.00;99.90
20446;DHT22;10382;49.140;9.234;2023-05-18T02:36:09;10.00;99.90
20446;DHT22;10382;49.140;9.234;2023-05-18T02:38:37;10.00;99.90
20446;DHT22;10382;49.140;9.234;2023-05-18T02:41:04;10.00;99.90
20446;DHT22;10382;49.140;9.234;2023-05-18T02:43:31;10.00;99.90
20446;DHT22;10382;49.140;9.234;2023-05-18T02:45:58;9.90;99.90
20446;DHT22;10382;49.140;9.234;2023-05-18T02:48:26;9.90;99.90
20446;DHT22;10382;49.140;9.234;2023-05-18T02:50:54;9.80;99.90
20446;DHT22;10382;49.140;9.234;2023-05-18T02:53:21;9.70;99.90
20446;DHT22;10382;49.140;9.234;2023-05-18T02:55:48;9.70;99.90
20446;DHT22;10382;49.140;9.234;2023-05-18T02:58:18;9.70;99.90
20446;DHT22;10382;49.140;9.234;2023-05-18T03:00:48;9.60;99.90
20446;DHT22;10382;49.140;9.234;2023-05-18T03:03:17;9.50;99.90
20446;DHT22;10382;49.140;9.234;2023-05-18T03:05:44;9.40;99.90
20446;DHT22;10382;49.140;9.234;2023-05-18T03:08:12;9.40;99.90
20446;DHT22;10382;49.140;9.234;2023-05-18T03:10:39;9.30;99.90
20446;DHT22;10382;49.140;9.234;2023-05-18T03:13:06;9.30;99.90
20446;DHT22;10382;49.140;9.234;2023-05-18T03:15:33;9.20;99.90
20446;DHT22;10382;49.140;9.234;2023-05-18T03:18:02;9.20;99.90
20446;DHT22;10382;49.140;9.234;2023-05-18T03:20:29;9.20;99.90
20446;DHT22;10382;49.140;9.234;2023-05-18T03:22:56;9.20;99.90
20446;DHT22;10382;49.140;9.234;2023-05-18T03:25:24;9.20;99.90
20446;DHT22;10382;49.140;9.234;2023-05-18T03:27:51;9.10;99.90
20446;DHT22;10382;49.140;9.234;2023-05-18T03:30:18;9.10;99.90
20446;DHT22;10382;49.140;9.234;2023-05-18T03:32:45;9.10;99.90
20446;DHT22;10382;49.140;9.234;2023-05-18T03:35:12;9.10;99.90
20446;DHT22;10382;49.140;9.234;2023-05-18T03:37:39;9.00;99.90
20446;DHT22;10382;49.140;9.234;2023-05-18T03:40:11;8.90;99.90
20446;DHT22;10382;49.140;9.234;2023-05-18T03:42:41;8.90;99.90
20446;DHT22;10382;49.140;9.234;2023-05-18T03:45:09;8.80;99.90
20446;DHT22;10382;49.140;9.234;2023-05-18T03:47:37;8.80;99.90
20446;DHT22;10382;49.140;9.234;2023-05-18T03:50:05;8.80;99.90
20446;DHT22;10382;49.140;9.234;2023-05-18T03:52:33;8.70;99.90
20446;DHT22;10382;49.140;9.234;2023-05-18T03:55:01;8.60;99.90
20446;DHT22;10382;49.140;9.234;2023-05-18T03:57:28;8.60;99.90
20446;DHT22;10382;49.140;9.234;2023-05-18T03:59:57;8.50;99.90
20446;DHT22;10382;49.140;9.234;2023-05-18T04:02:24;8.40;99.90
20446;DHT22;10382;49.140;9.234;2023-05-18T04:04:51;8.40;99.90
20446;DHT22;10382;49.140;9.234;2023-05-18T04:07:19;8.30;99.90
20446;DHT22;10382;49.140;9.234;2023-05-18T04:09:49;8.30;99.90
20446;DHT22;10382;49.140;9.234;2023-05-18T04:12:17;8.30;99.90
20446;DHT22;10382;49.140;9.234;2023-05-18T04:14:43;8.40;99.90
20446;DHT22;10382;49.140;9.234;2023-05-18T04:17:16;8.30;99.90
20446;DHT22;10382;49.140;9.234;2023-05-18T04:19:43;8.40;99.90
20446;DHT22;10382;49.140;9.234;2023-05-18T04:22:10;8.40;99.90
20446;DHT22;10382;49.140;9.234;2023-05-18T04:24:37;8.40;99.90
20446;DHT22;10382;49.140;9.234;2023-05-18T04:27:06;8.40;99.90
20446;DHT22;10382;49.140;9.234;2023-05-18T04:29:33;8.40;99.90
20446;DHT22;10382;49.140;9.234;2023-05-18T04:32:03;8.50;99.90
20446;DHT22;10382;49.140;9.234;2023-05-18T04:34:34;8.50;99.90
20446;DHT22;10382;49.140;9.234;2023-05-18T04:37:02;8.50;99.90
20446;DHT22;10382;49.140;9.234;2023-05-18T04:39:30;8.60;99.90
20446;DHT22;10382;49.140;9.234;2023-05-18T04:41:57;8.50;99.90
20446;DHT22;10382;49.140;9.234;2023-05-18T04:44:25;8.60;99.90
20446;DHT22;10382;49.140;9.234;2023-05-18T04:46:53;8.60;99.90
20446;DHT22;10382;49.140;9.234;2023-05-18T04:49:20;8.70;99.90
20446;DHT22;10382;49.140;9.234;2023-05-18T04:51:49;8.80;99.90
20446;DHT22;10382;49.140;9.234;2023-05-18T04:54:20;8.80;99.90
20446;DHT22;10382;49.140;9.234;2023-05-18T04:56:48;8.90;99.90
20446;DHT22;10382;49.140;9.234;2023-05-18T04:59:15;9.00;99.90
20446;DHT22;10382;49.140;9.234;2023-05-18T05:01:42;8.90;99.90
20446;DHT22;10382;49.140;9.234;2023-05-18T05:04:09;8.90;99.90
20446;DHT22;10382;49.140;9.234;2023-05-18T05:06:36;8.90;99.90
20446;DHT22;10382;49.140;9.234;2023-05-18T05:09:04;9.00;99.90
20446;DHT22;10382;49.140;9.234;2023-05-18T05:11:31;9.00;99.90
20446;DHT22;10382;49.140;9.234;2023-05-18T05:14:00;9.00;99.90
20446;DHT22;10382;49.140;9.234;2023-05-18T05:16:27;8.90;99.90
20446;DHT22;10382;49.140;9.234;2023-05-18T05:18:54;8.90;99.90
20446;DHT22;10382;49.140;9.234;2023-05-18T05:21:21;8.90;99.90
20446;DHT22;10382;49.140;9.234;2023-05-18T05:23:48;9.10;99.90
20446;DHT22;10382;49.140;9.234;2023-05-18T05:26:16;9.20;99.90
20446;DHT22;10382;49.140;9.234;2023-05-18T05:28:43;9.30;99.90
20446;DHT22;10382;49.140;9.234;2023-05-18T05:31:10;9.40;99.90
20446;DHT22;10382;49.140;9.234;2023-05-18T05:33:37;9.40;99.90
20446;DHT22;10382;49.140;9.234;2023-05-18T05:36:05;9.60;99.90
20446;DHT22;10382;49.140;9.234;2023-05-18T05:38:32;9.80;99.90
20446;DHT22;10382;49.140;9.234;2023-05-18T05:41:00;10.00;99.90
20446;DHT22;10382;49.140;9.234;2023-05-18T05:43:28;10.10;99.90
20446;DHT22;10382;49.140;9.234;2023-05-18T05:45:55;10.00;99.90
20446;DHT22;10382;49.140;9.234;2023-05-18T05:48:22;10.10;99.90
20446;DHT22;10382;49.140;9.234;2023-05-18T05:50:48;10.20;99.90
20446;DHT22;10382;49.140;9.234;2023-05-18T05:53:15;10.40;99.90
20446;DHT22;10382;49.140;9.234;2023-05-18T05:55:44;10.50;99.90
20446;DHT22;10382;49.140;9.234;2023-05-18T05:58:11;10.40;99.90
20446;DHT22;10382;49.140;9.234;2023-05-18T06:00:39;10.60;99.90
20446;DHT22;10382;49.140;9.234;2023-05-18T06:03:07;10.70;99.90
20446;DHT22;10382;49.140;9.234;2023-05-18T06:05:34;10.80;99.90
20446;DHT22;10382;49.140;9.234;2023-05-18T06:08:01;11.00;99.90
20446;DHT22;10382;49.140;9.234;2023-05-18T06:10:28;11.20;99.90
20446;DHT22;10382;49.140;9.234;2023-05-18T06:12:55;11.40;99.90
20446;DHT22;10382;49.140;9.234;2023-05-18T06:15:23;11.60;99.90
20446;DHT22;10382;49.140;9.234;2023-05-18T06:17:51;11.80;99.90
20446;DHT22;10382;49.140;9.234;2023-05-18T06:20:18;11.90;99.90
20446;DHT22;10382;49.140;9.234;2023-05-18T06:22:45;11.90;99.90
20446;DHT22;10382;49.140;9.234;2023-05-18T06:25:12;11.80;99.90
20446;DHT22;10382;49.140;9.234;2023-05-18T06:27:39;12.00;99.90
20446;DHT22;10382;49.140;9.234;2023-05-18T06:30:08;12.20;99.90
20446;DHT22;10382;49.140;9.234;2023-05-18T06:32:36;12.50;99.90
20446;DHT22;10382;49.140;9.234;2023-05-18T06:35:05;12.90;99.90
20446;DHT22;10382;49.140;9.234;2023-05-18T06:37:32;13.10;99.90
20446;DHT22;10382;49.140;9.234;2023-05-18T06:39:59;13.30;99.90
20446;DHT22;10382;49.140;9.234;2023-05-18T06:42:26;13.30;99.90
20446;DHT22;10382;49.140;9.234;2023-05-18T06:44:52;13.20;99.90
20446;DHT22;10382;49.140;9.234;2023-05-18T06:47:19;13.30;99.90
20446;DHT22;10382;49.140;9.234;2023-05-18T06:49:46;13.30;99.90
20446;DHT22;10382;49.140;9.234;2023-05-18T06:52:14;13.40;99.90
20446;DHT22;10382;49.140;9.234;2023-05-18T06:54:41;13.70;99.90
20446;DHT22;10382;49.140;9.234;2023-05-18T06:57:08;13.90;99.90
20446;DHT22;10382;49.140;9.234;2023-05-18T06:59:35;13.80;99.90
20446;DHT22;10382;49.140;9.234;2023-05-18T07:02:02;13.70;99.90
20446;DHT22;10382;49.140;9.234;2023-05-18T07:04:29;13.80;99.90
20446;DHT22;10382;49.140;9.234;2023-05-18T07:06:56;13.90;99.90
20446;DHT22;10382;49.140;9.234;2023-05-18T07:09:24;13.90;99.90
20446;DHT22;10382;49.140;9.234;2023-05-18T07:11:51;14.00;99.90
20446;DHT22;10382;49.140;9.234;2023-05-18T07:14:18;14.20;99.90
20446;DHT22;10382;49.140;9.234;2023-05-18T07:16:45;14.60;99.90
20446;DHT22;10382;49.140;9.234;2023-05-18T07:19:12;15.00;99.90
20446;DHT22;10382;49.140;9.234;2023-05-18T07:21:39;15.50;99.90
20446;DHT22;10382;49.140;9.234;2023-05-18T07:24:06;15.50;99.90
20446;DHT22;10382;49.140;9.234;2023-05-18T07:26:34;15.30;99.90
20446;DHT22;10382;49.140;9.234;2023-05-18T07:29:01;14.90;99.90
20446;DHT22;10382;49.140;9.234;2023-05-18T07:31:28;14.80;99.90
20446;DHT22;10382;49.140;9.234;2023-05-18T07:33:55;14.90;99.90
20446;DHT22;10382;49.140;9.234;2023-05-18T07:36:22;14.90;99.90
20446;DHT22;10382;49.140;9.234;2023-05-18T07:38:50;14.90;99.90
20446;DHT22;10382;49.140;9.234;2023-05-18T07:41:19;15.10;99.90
20446;DHT22;10382;49.140;9.234;2023-05-18T07:43:48;15.50;99.90
20446;DHT22;10382;49.140;9.234;2023-05-18T07:46:15;15.90;99.90
20446;DHT22;10382;49.140;9.234;2023-05-18T07:48:42;16.10;99.90
20446;DHT22;10382;49.140;9.234;2023-05-18T07:51:09;16.20;99.90
20446;DHT22;10382;49.140;9.234;2023-05-18T07:53:36;16.10;99.90
20446;DHT22;10382;49.140;9.234;2023-05-18T07:56:04;16.30;99.90
20446;DHT22;10382;49.140;9.234;2023-05-18T07:58:32;16.30;99.90
20446;DHT22;10382;49.140;9.234;2023-05-18T08:01:00;16.00;99.90
20446;DHT22;10382;49.140;9.234;2023-05-18T08:03:27;15.60;99.90
20446;DHT22;10382;49.140;9.234;2023-05-18T08:05:54;15.40;99.90
20446;DHT22;10382;49.140;9.234;2023-05-18T08:08:21;15.50;99.90
20446;DHT22;10382;49.140;9.234;2023-05-18T08:10:49;15.70;99.90
20446;DHT22;10382;49.140;9.234;2023-05-18T08:13:17;15.80;99.90
20446;DHT22;10382;49.140;9.234;2023-05-18T08:15:43;16.10;99.90
20446;DHT22;10382;49.140;9.234;2023-05-18T08:18:12;16.40;99.90
20446;DHT22;10382;49.140;9.234;2023-05-18T08:20:42;16.70;99.90
20446;DHT22;10382;49.140;9.234;2023-05-18T08:23:09;17.10;99.90
20446;DHT22;10382;49.140;9.234;2023-05-18T08:25:36;17.40;99.90
20446;DHT22;10382;49.140;9.234;2023-05-18T08:28:03;17.70;99.90
20446;DHT22;10382;49.140;9.234;2023-05-18T08:30:30;17.70;99.90
20446;DHT22;10382;49.140;9.234;2023-05-18T08:32:57;17.80;99.90
20446;DHT22;10382;49.140;9.234;2023-05-18T08:35:25;17.90;99.90
20446;DHT22;10382;49.140;9.234;2023-05-18T08:37:52;18.00;99.90
20446;DHT22;10382;49.140;9.234;2023-05-18T08:40:19;17.80;99.90
20446;DHT22;10382;49.140;9.234;2023-05-18T08:42:51;17.80;99.90
20446;DHT22;10382;49.140;9.234;2023-05-18T08:45:31;18.10;99.40
20446;DHT22;10382;49.140;9.234;2023-05-18T08:48:02;18.40;99.70
20446;DHT22;10382;49.140;9.234;2023-05-18T08:50:31;18.40;97.40
20446;DHT22;10382;49.140;9.234;2023-05-18T08:53:00;18.60;97.70
20446;DHT22;10382;49.140;9.234;2023-05-18T08:55:28;18.80;96.80
20446;DHT22;10382;49.140;9.234;2023-05-18T08:58:01;18.60;96.20
20446;DHT22;10382;49.140;9.234;2023-05-18T09:00:28;18.70;95.10
20446;DHT22;10382;49.140;9.234;2023-05-18T09:02:55;18.80;94.70
20446;DHT22;10382;49.140;9.234;2023-05-18T09:05:22;18.90;94.30
20446;DHT22;10382;49.140;9.234;2023-05-18T09:07:51;19.10;94.10
20446;DHT22;10382;49.140;9.234;2023-05-18T09:10:18;19.10;92.70
20446;DHT22;10382;49.140;9.234;2023-05-18T09:12:48;18.70;90.70
20446;DHT22;10382;49.140;9.234;2023-05-18T09:15:16;17.80;91.70
20446;DHT22;10382;49.140;9.234;2023-05-18T09:17:43;17.40;92.10
20446;DHT22;10382;49.140;9.234;2023-05-18T09:20:10;17.40;93.70
20446;DHT22;10382;49.140;9.234;2023-05-18T09:22:37;17.70;92.70
20446;DHT22;10382;49.140;9.234;2023-05-18T09:25:07;17.90;93.20
20446;DHT22;10382;49.140;9.234;2023-05-18T09:27:35;18.00;92.80
20446;DHT22;10382;49.140;9.234;2023-05-18T09:30:02;18.30;92.40
20446;DHT22;10382;49.140;9.234;2023-05-18T09:32:33;18.60;92.00
20446;DHT22;10382;49.140;9.234;2023-05-18T09:35:05;18.80;90.30
20446;DHT22;10382;49.140;9.234;2023-05-18T09:37:32;19.10;90.20
20446;DHT22;10382;49.140;9.234;2023-05-18T09:40:00;19.20;87.10
20446;DHT22;10382;49.140;9.234;2023-05-18T09:42:34;19.20;87.80
20446;DHT22;10382;49.140;9.234;2023-05-18T09:45:02;19.20;88.00
20446;DHT22;10382;49.140;9.234;2023-05-18T09:47:28;19.50;87.80
20446;DHT22;10382;49.140;9.234;2023-05-18T09:49:56;19.70;87.40
20446;DHT22;10382;49.140;9.234;2023-05-18T09:52:23;19.70;79.00
20446;DHT22;10382;49.140;9.234;2023-05-18T09:54:57;19.40;77.20
20446;DHT22;10382;49.140;9.234;2023-05-18T09:57:25;19.40;76.90
20446;DHT22;10382;49.140;9.234;2023-05-18T10:00:01;19.50;75.50
20446;DHT22;10382;49.140;9.234;2023-05-18T10:02:32;19.60;77.00
20446;DHT22;10382;49.140;9.234;2023-05-18T10:05:03;19.30;77.50
20446;DHT22;10382;49.140;9.234;2023-05-18T10:07:32;19.40;81.00
20446;DHT22;10382;49.140;9.234;2023-05-18T10:10:01;19.10;80.30
20446;DHT22;10382;49.140;9.234;2023-05-18T10:12:28;19.00;81.00
20446;DHT22;10382;49.140;9.234;2023-05-18T10:14:57;19.10;83.10
20446;DHT22;10382;49.140;9.234;2023-05-18T10:17:25;19.00;81.90
20446;DHT22;10382;49.140;9.234;2023-05-18T10:19:54;19.20;77.40
20446;DHT22;10382;49.140;9.234;2023-05-18T10:22:23;19.00;77.20
20446;DHT22;10382;49.140;9.234;2023-05-18T10:24:51;19.20;79.30
20446;DHT22;10382;49.140;9.234;2023-05-18T10:27:22;19.60;80.10
20446;DHT22;10382;49.140;9.234;2023-05-18T10:29:52;20.00;74.80
20446;DHT22;10382;49.140;9.234;2023-05-18T10:32:22;20.20;74.00
20446;DHT22;10382;49.140;9.234;2023-05-18T10:34:51;20.40;73.20
20446;DHT22;10382;49.140;9.234;2023-05-18T10:37:21;20.40;71.20
20446;DHT22;10382;49.140;9.234;2023-05-18T10:39:50;20.30;71.70
20446;DHT22;10382;49.140;9.234;2023-05-18T10:42:18;20.40;70.90
20446;DHT22;10382;49.140;9.234;2023-05-18T10:44:46;20.70;71.20
20446;DHT22;10382;49.140;9.234;2023-05-18T10:47:14;21.00;70.50
20446;DHT22;10382;49.140;9.234;2023-05-18T10:49:44;20.80;66.60
20446;DHT22;10382;49.140;9.234;2023-05-18T10:52:12;20.50;69.70
20446;DHT22;10382;49.140;9.234;2023-05-18T10:54:42;20.40;71.40
20446;DHT22;10382;49.140;9.234;2023-05-18T10:57:11;20.60;68.90
20446;DHT22;10382;49.140;9.234;2023-05-18T10:59:40;20.80;68.50
20446;DHT22;10382;49.140;9.234;2023-05-18T11:02:09;21.10;65.80
20446;DHT22;10382;49.140;9.234;2023-05-18T11:04:39;20.90;65.90
20446;DHT22;10382;49.140;9.234;2023-05-18T11:07:11;20.90;66.20
20446;DHT22;10382;49.140;9.234;2023-05-18T11:09:40;21.20;66.40
20446;DHT22;10382;49.140;9.234;2023-05-18T11:12:11;21.60;66.80
20446;DHT22;10382;49.140;9.234;2023-05-18T11:14:47;21.70;64.40
20446;DHT22;10382;49.140;9.234;2023-05-18T11:17:19;21.80;66.60
20446;DHT22;10382;49.140;9.234;2023-05-18T11:20:11;21.80;67.60
20446;DHT22;10382;49.140;9.234;2023-05-18T11:22:47;21.90;68.30
20446;DHT22;10382;49.140;9.234;2023-05-18T11:25:39;21.60;64.10
20446;DHT22;10382;49.140;9.234;2023-05-18T11:28:09;21.00;65.10
20446;DHT22;10382;49.140;9.234;2023-05-18T11:30:47;20.70;64.10
20446;DHT22;10382;49.140;9.234;2023-05-18T11:33:17;20.40;67.20
20446;DHT22;10382;49.140;9.234;2023-05-18T11:35:57;20.50;68.70
20446;DHT22;10382;49.140;9.234;2023-05-18T11:38:47;20.90;65.50
20446;DHT22;10382;49.140;9.234;2023-05-18T11:41:30;20.70;63.60
20446;DHT22;10382;49.140;9.234;2023-05-18T11:44:15;20.90;62.00
20446;DHT22;10382;49.140;9.234;2023-05-18T11:46:54;20.80;64.00
20446;DHT22;10382;49.140;9.234;2023-05-18T11:49:23;21.00;67.30
20446;DHT22;10382;49.140;9.234;2023-05-18T11:52:04;21.50;63.40
20446;DHT22;10382;49.140;9.234;2023-05-18T11:54:38;21.80;63.00
20446;DHT22;10382;49.140;9.234;2023-05-18T11:57:06;22.10;63.40
20446;DHT22;10382;49.140;9.234;2023-05-18T11:59:36;22.10;59.60
20446;DHT22;10382;49.140;9.234;2023-05-18T12:02:04;21.40;59.10
20446;DHT22;10382;49.140;9.234;2023-05-18T12:04:32;21.00;62.40
20446;DHT22;10382;49.140;9.234;2023-05-18T12:07:04;21.00;61.40
20446;DHT22;10382;49.140;9.234;2023-05-18T12:09:33;21.00;63.40
20446;DHT22;10382;49.140;9.234;2023-05-18T12:12:02;21.30;63.20
20446;DHT22;10382;49.140;9.234;2023-05-18T12:14:29;21.30;58.30
20446;DHT22;10382;49.140;9.234;2023-05-18T12:16:57;21.30;59.60
20446;DHT22;10382;49.140;9.234;2023-05-18T12:19:25;21.00;61.20
20446;DHT22;10382;49.140;9.234;2023-05-18T12:21:52;21.10;60.90
20446;DHT22;10382;49.140;9.234;2023-05-18T12:24:19;21.50;59.80
20446;DHT22;10382;49.140;9.234;2023-05-18T12:26:46;21.20;59.40
20446;DHT22;10382;49.140;9.234;2023-05-18T12:29:15;20.90;60.60
20446;DHT22;10382;49.140;9.234;2023-05-18T12:31:45;20.60;61.00
20446;DHT22;10382;49.140;9.234;2023-05-18T12:34:13;20.80;63.70
20446;DHT22;10382;49.140;9.234;2023-05-18T12:36:50;21.20;63.40
20446;DHT22;10382;49.140;9.234;2023-05-18T12:39:17;21.60;63.30
20446;DHT22;10382;49.140;9.234;2023-05-18T12:41:44;22.20;62.20
20446;DHT22;10382;49.140;9.234;2023-05-18T12:44:11;22.40;60.90
20446;DHT22;10382;49.140;9.234;2023-05-18T12:46:40;22.60;59.50
20446;DHT22;10382;49.140;9.234;2023-05-18T12:49:08;22.80;59.60
20446;DHT22;10382;49.140;9.234;2023-05-18T12:51:36;23.00;59.00
20446;DHT22;10382;49.140;9.234;2023-05-18T12:54:04;23.20;59.40
20446;DHT22;10382;49.140;9.234;2023-05-18T12:56:51;23.20;58.10
20446;DHT22;10382;49.140;9.234;2023-05-18T12:59:23;22.90;59.10
20446;DHT22;10382;49.140;9.234;2023-05-18T13:01:52;22.80;58.40
20446;DHT22;10382;49.140;9.234;2023-05-18T13:04:20;22.90;59.20
20446;DHT22;10382;49.140;9.234;2023-05-18T13:06:46;23.20;59.60
20446;DHT22;10382;49.140;9.234;2023-05-18T13:09:14;23.50;59.40
20446;DHT22;10382;49.140;9.234;2023-05-18T13:11:46;23.60;56.50
20446;DHT22;10382;49.140;9.234;2023-05-18T13:14:13;23.50;56.90
20446;DHT22;10382;49.140;9.234;2023-05-18T13:16:44;23.00;54.60
20446;DHT22;10382;49.140;9.234;2023-05-18T13:19:16;22.70;56.40
20446;DHT22;10382;49.140;9.234;2023-05-18T13:21:43;22.50;56.70
20446;DHT22;10382;49.140;9.234;2023-05-18T13:24:10;22.70;57.00
20446;DHT22;10382;49.140;9.234;2023-05-18T13:26:37;22.90;56.90
20446;DHT22;10382;49.140;9.234;2023-05-18T13:29:05;22.60;57.70
20446;DHT22;10382;49.140;9.234;2023-05-18T13:31:33;22.30;55.70
20446;DHT22;10382;49.140;9.234;2023-05-18T13:34:00;21.90;56.70
20446;DHT22;10382;49.140;9.234;2023-05-18T13:36:28;21.70;58.20
20446;DHT22;10382;49.140;9.234;2023-05-18T13:38:57;22.00;58.60
20446;DHT22;10382;49.140;9.234;2023-05-18T13:41:24;22.10;56.70
20446;DHT22;10382;49.140;9.234;2023-05-18T13:43:50;22.00;56.80
20446;DHT22;10382;49.140;9.234;2023-05-18T13:46:17;22.20;56.00
20446;DHT22;10382;49.140;9.234;2023-05-18T13:48:44;22.40;57.30
20446;DHT22;10382;49.140;9.234;2023-05-18T13:51:11;22.40;56.00
20446;DHT22;10382;49.140;9.234;2023-05-18T13:53:39;22.70;57.40
20446;DHT22;10382;49.140;9.234;2023-05-18T13:56:06;22.30;56.10
20446;DHT22;10382;49.140;9.234;2023-05-18T13:58:33;21.80;55.90
20446;DHT22;10382;49.140;9.234;2023-05-18T14:01:00;21.90;56.40
20446;DHT22;10382;49.140;9.234;2023-05-18T14:03:29;22.20;56.30
20446;DHT22;10382;49.140;9.234;2023-05-18T14:05:58;22.50;56.00
20446;DHT22;10382;49.140;9.234;2023-05-18T14:08:25;22.80;54.80
20446;DHT22;10382;49.140;9.234;2023-05-18T14:10:53;23.10;55.70
20446;DHT22;10382;49.140;9.234;2023-05-18T14:13:20;23.50;55.30
20446;DHT22;10382;49.140;9.234;2023-05-18T14:15:46;23.80;53.40
20446;DHT22;10382;49.140;9.234;2023-05-18T14:18:13;23.60;55.40
20446;DHT22;10382;49.140;9.234;2023-05-18T14:20:40;23.50;54.30
20446;DHT22;10382;49.140;9.234;2023-05-18T14:23:07;23.50;53.70
20446;DHT22;10382;49.140;9.234;2023-05-18T14:25:34;23.60;53.70
20446;DHT22;10382;49.140;9.234;2023-05-18T14:28:02;23.60;54.10
20446;DHT22;10382;49.140;9.234;2023-05-18T14:30:29;23.20;53.70
20446;DHT22;10382;49.140;9.234;2023-05-18T14:32:56;22.20;54.50
20446;DHT22;10382;49.140;9.234;2023-05-18T14:35:23;21.70;54.40
20446;DHT22;10382;49.140;9.234;2023-05-18T14:37:50;21.70;56.80
20446;DHT22;10382;49.140;9.234;2023-05-18T14:40:17;21.90;56.20
20446;DHT22;10382;49.140;9.234;2023-05-18T14:42:43;22.10;54.90
20446;DHT22;10382;49.140;9.234;2023-05-18T14:45:12;22.20;55.50
20446;DHT22;10382;49.140;9.234;2023-05-18T14:47:39;22.30;54.20
20446;DHT22;10382;49.140;9.234;2023-05-18T14:50:06;22.40;56.10
20446;DHT22;10382;49.140;9.234;2023-05-18T14:52:33;22.70;56.00
20446;DHT22;10382;49.140;9.234;2023-05-18T14:55:00;23.10;55.10
20446;DHT22;10382;49.140;9.234;2023-05-18T14:57:27;23.50;54.80
20446;DHT22;10382;49.140;9.234;2023-05-18T14:59:54;23.70;55.00
20446;DHT22;10382;49.140;9.234;2023-05-18T15:02:22;23.70;55.10
20446;DHT22;10382;49.140;9.234;2023-05-18T15:04:49;23.40;52.60
20446;DHT22;10382;49.140;9.234;2023-05-18T15:07:16;23.30;53.80
20446;DHT22;10382;49.140;9.234;2023-05-18T15:09:42;23.40;53.80
20446;DHT22;10382;49.140;9.234;2023-05-18T15:12:10;23.70;53.70
20446;DHT22;10382;49.140;9.234;2023-05-18T15:14:36;24.00;53.90
20446;DHT22;10382;49.140;9.234;2023-05-18T15:17:04;24.30;53.50
20446;DHT22;10382;49.140;9.234;2023-05-18T15:19:33;24.50;53.50
20446;DHT22;10382;49.140;9.234;2023-05-18T15:22:00;24.90;52.80
20446;DHT22;10382;49.140;9.234;2023-05-18T15:24:26;25.40;51.10
20446;DHT22;10382;49.140;9.234;2023-05-18T15:26:53;25.20;51.90
20446;DHT22;10382;49.140;9.234;2023-05-18T15:29:20;25.00;51.20
20446;DHT22;10382;49.140;9.234;2023-05-18T15:31:47;25.30;51.10
20446;DHT22;10382;49.140;9.234;2023-05-18T15:34:15;24.80;49.50
20446;DHT22;10382;49.140;9.234;2023-05-18T15:36:43;24.60;51.50
20446;DHT22;10382;49.140;9.234;2023-05-18T15:39:10;24.70;51.80
20446;DHT22;10382;49.140;9.234;2023-05-18T15:41:37;25.10;51.80
20446;DHT22;10382;49.140;9.234;2023-05-18T15:44:04;25.20;52.30